Time;durP1;ratioP1;P1;durP2;ratioP2;P2;SDS_P1;SDS_P2;PMS_P1;PMS_P2;Temp;Humidity;BMP_temperature;BMP_pressure;BME280_temperature;BME280_humidity;BME280_pressure;Samples;Min_cycle;Max_cycle;Signal;HPM_P1;HPM_P2
2022/10/18 00:00:39;;;;;;;;;6.50;4.75;;;;;29.09;100.00;101475.53;5123084;27;51549;-52
2022/10/18 00:03:23;;;;;;;;;10.75;6.25;;;;;29.07;100.00;101473.75;5122612;27;51223;-54
2022/10/18 00:06:08;;;;;;;;;7.00;5.00;;;;;29.04;100.00;101464.88;5123047;27;51598;-55
2022/10/18 00:08:53;;;;;;;;;6.00;6.00;;;;;29.04;100.00;101462.16;5119897;27;51309;-50
2022/10/18 00:11:38;;;;;;;;;8.75;7.25;;;;;29.02;100.00;101456.78;5124068;27;51128;-47
2022/10/18 00:14:23;;;;;;;;;7.00;5.50;;;;;29.07;100.00;101459.19;5123668;27;51690;-49
2022/10/18 00:17:07;;;;;;;;;8.50;6.50;;;;;29.07;100.00;101450.97;5123375;27;51418;-50
2022/10/18 00:19:52;;;;;;;;;4.75;4.25;;;;;29.09;100.00;101448.13;5123269;27;51093;-46
2022/10/18 00:22:38;;;;;;;;;9.75;6.50;;;;;29.11;100.00;101446.16;5123675;27;51098;-50
2022/10/18 00:25:23;;;;;;;;;10.25;6.75;;;;;29.06;100.00;101435.53;5123019;27;51331;-50
2022/10/18 00:28:07;;;;;;;;;7.75;7.00;;;;;29.03;100.00;101428.41;5112504;27;51136;-49
2022/10/18 00:30:52;;;;;;;;;8.00;6.25;;;;;29.03;100.00;101427.50;5119953;27;51349;-52
2022/10/18 00:33:37;;;;;;;;;10.25;8.75;;;;;29.01;100.00;101426.75;5121735;27;51207;-47
2022/10/18 00:36:22;;;;;;;;;8.00;7.00;;;;;28.99;100.00;101423.25;5121574;27;51026;-49
2022/10/18 00:39:08;;;;;;;;;10.50;5.75;;;;;28.95;100.00;101422.56;5122613;27;51088;-49
2022/10/18 00:41:53;;;;;;;;;8.50;7.00;;;;;28.94;100.00;101418.09;5122650;27;51060;-51
2022/10/18 00:44:37;;;;;;;;;7.25;6.00;;;;;28.95;100.00;101419.84;5122358;27;51344;-52
2022/10/18 00:47:21;;;;;;;;;6.50;4.75;;;;;28.94;100.00;101409.88;5122548;27;51251;-50
2022/10/18 00:50:07;;;;;;;;;15.75;8.00;;;;;28.96;100.00;101412.50;5122130;27;51109;-53
2022/10/18 00:52:55;;;;;;;;;12.75;6.50;;;;;28.95;100.00;101405.28;5117590;27;51185;-50
2022/10/18 00:55:40;;;;;;;;;9.00;7.25;;;;;28.89;100.00;101404.72;5122118;27;51518;-50
2022/10/18 00:58:25;;;;;;;;;7.00;6.25;;;;;28.90;100.00;101413.81;5122088;27;51217;-49
2022/10/18 01:01:09;;;;;;;;;7.00;6.25;;;;;28.90;100.00;101411.94;5121231;27;51196;-48
2022/10/18 01:03:54;;;;;;;;;6.50;5.25;;;;;28.95;100.00;101410.75;5122057;27;51236;-50
2022/10/18 01:07:19;;;;;;;;;7.00;6.25;;;;;28.94;100.00;101406.25;5121852;27;51094;-50
2022/10/18 01:10:16;;;;;;;;;7.50;7.00;;;;;28.92;100.00;101409.97;5120838;27;51080;-47
2022/10/18 01:13:14;;;;;;;;;10.00;8.50;;;;;28.87;100.00;101395.75;5122331;27;51266;-50
2022/10/18 01:16:30;;;;;;;;;7.50;6.00;;;;;28.95;100.00;101411.63;5120360;27;51085;-46
2022/10/18 01:19:37;;;;;;;;;7.00;5.00;;;;;28.94;100.00;101414.47;5121572;27;51161;-51
2022/10/18 01:22:28;;;;;;;;;6.00;5.25;;;;;28.91;100.00;101408.22;5121595;27;51497;-50
2022/10/18 01:25:22;;;;;;;;;6.25;5.25;;;;;28.86;100.00;101396.72;5120632;27;51250;-48
2022/10/18 01:28:25;;;;;;;;;5.00;5.00;;;;;28.87;100.00;101398.50;5121748;27;51114;-48
2022/10/18 01:31:20;;;;;;;;;7.25;5.75;;;;;28.84;100.00;101401.44;5121599;27;51134;-49
2022/10/18 01:34:07;;;;;;;;;8.75;5.25;;;;;28.84;100.00;101406.03;5121375;27;51065;-49
2022/10/18 01:36:53;;;;;;;;;7.25;6.25;;;;;28.85;100.00;101403.19;5120745;27;51246;-46
2022/10/18 01:39:40;;;;;;;;;8.25;5.75;;;;;28.83;100.00;101391.47;5121606;27;51154;-50
2022/10/18 01:42:26;;;;;;;;;10.25;5.00;;;;;28.82;100.00;101388.84;5121187;27;51336;-50
2022/10/18 01:45:11;;;;;;;;;5.75;5.25;;;;;28.80;100.00;101380.72;5119974;27;51401;-49
2022/10/18 01:47:57;;;;;;;;;5.50;5.50;;;;;28.81;100.00;101377.00;5120113;27;51404;-51
2022/10/18 01:50:41;;;;;;;;;11.25;5.50;;;;;28.80;100.00;101369.75;5121470;27;51100;-48
2022/10/18 01:53:30;;;;;;;;;7.25;5.75;;;;;28.82;100.00;101376.00;5120335;27;51533;-51
2022/10/18 01:56:36;;;;;;;;;9.50;6.25;;;;;28.84;100.00;101367.69;5121030;27;51130;-53
2022/10/18 01:59:37;;;;;;;;;5.00;5.00;;;;;28.84;100.00;101373.16;5120835;27;51324;-49
2022/10/18 02:02:41;;;;;;;;;6.75;6.00;;;;;28.84;100.00;101374.03;5119872;27;51222;-49
2022/10/18 02:05:37;;;;;;;;;5.50;4.00;;;;;28.82;100.00;101373.28;5120064;27;51144;-49
2022/10/18 02:08:26;;;;;;;;;5.50;4.25;;;;;28.81;100.00;101376.13;5119539;27;51176;-49
2022/10/18 02:11:15;;;;;;;;;7.00;4.75;;;;;28.79;100.00;101365.25;5121046;27;51151;-52
2022/10/18 02:14:07;;;;;;;;;5.00;4.50;;;;;28.81;100.00;101377.00;5120029;27;51438;-50
2022/10/18 02:16:56;;;;;;;;;5.25;5.25;;;;;28.79;100.00;101368.00;5120800;27;51050;-48
2022/10/18 02:19:48;;;;;;;;;6.75;4.50;;;;;28.74;100.00;101370.22;5119424;27;51196;-49
2022/10/18 02:22:34;;;;;;;;;8.50;6.00;;;;;28.74;100.00;101365.59;5119463;27;51069;-51
2022/10/18 02:25:26;;;;;;;;;5.00;5.00;;;;;28.79;100.00;101368.00;5119768;27;51206;-49
2022/10/18 02:28:10;;;;;;;;;8.75;5.00;;;;;28.81;100.00;101365.19;5120009;27;51120;-53
2022/10/18 02:31:11;;;;;;;;;6.00;5.00;;;;;28.76;100.00;101355.41;5120378;27;51414;-49
2022/10/18 02:34:05;;;;;;;;;5.00;5.00;;;;;28.80;100.00;101369.75;5119751;27;51588;-52
2022/10/18 02:36:58;;;;;;;;;6.00;6.00;;;;;28.79;100.00;101368.00;5119523;27;51280;-51
2022/10/18 02:39:45;;;;;;;;;5.00;4.00;;;;;28.75;100.00;101363.75;5119778;27;51368;-48
2022/10/18 02:42:39;;;;;;;;;6.00;6.00;;;;;28.77;100.00;101375.47;5115462;27;51194;-50
2022/10/18 02:45:25;;;;;;;;;6.25;5.25;;;;;28.75;100.00;101366.50;5120737;27;51197;-49
2022/10/18 02:48:09;;;;;;;;;3.75;3.50;;;;;28.74;100.00;101367.47;5119908;27;51181;-51
2022/10/18 02:50:54;;;;;;;;;10.00;5.25;;;;;28.73;100.00;101363.84;5120656;27;51493;-52
2022/10/18 02:53:39;;;;;;;;;7.25;6.00;;;;;28.73;100.00;101366.56;5120636;27;51153;-48
2022/10/18 02:56:24;;;;;;;;;7.25;7.25;;;;;28.71;100.00;101352.16;5120785;27;51196;-48
2022/10/18 02:59:10;;;;;;;;;7.50;5.00;;;;;28.76;100.00;101366.38;5120479;27;51430;-53
2022/10/18 03:01:54;;;;;;;;;7.50;6.00;;;;;28.76;100.00;101360.88;5120459;27;51192;-50
2022/10/18 03:04:39;;;;;;;;;6.50;4.00;;;;;28.76;100.00;101355.41;5120883;27;51359;-49
2022/10/18 03:07:24;;;;;;;;;6.00;5.00;;;;;28.76;100.00;101358.16;5120633;27;51169;-49
2022/10/18 03:10:08;;;;;;;;;6.75;3.75;;;;;28.75;100.00;101364.63;5120396;27;51455;-49
2022/10/18 03:12:53;;;;;;;;;7.25;6.00;;;;;28.78;100.00;101368.13;5120381;27;51131;-51
2022/10/18 03:15:38;;;;;;;;;7.75;5.00;;;;;28.73;100.00;101362.97;5115317;27;51060;-50
2022/10/18 03:18:22;;;;;;;;;8.75;5.75;;;;;28.71;100.00;101359.44;5120593;27;51152;-53
2022/10/18 03:21:07;;;;;;;;;7.00;6.75;;;;;28.70;100.00;101365.88;5117595;27;53071;-50
2022/10/18 03:23:52;;;;;;;;;8.25;6.50;;;;;28.70;100.00;101375.00;5120425;27;51524;-50
2022/10/18 03:26:36;;;;;;;;;5.50;5.50;;;;;28.69;100.00;101364.13;5111599;27;51060;-47
2022/10/18 03:29:21;;;;;;;;;4.75;4.75;;;;;28.71;100.00;101373.13;5119813;27;51042;-48
2022/10/18 03:32:06;;;;;;;;;5.75;5.75;;;;;28.69;100.00;101353.19;5120311;27;51116;-49
2022/10/18 03:34:50;;;;;;;;;5.50;5.50;;;;;28.74;100.00;101368.34;5120111;27;51263;-48
2022/10/18 03:37:35;;;;;;;;;8.25;6.00;;;;;28.76;100.00;101365.50;5120182;27;51111;-50
2022/10/18 03:40:20;;;;;;;;;6.00;5.00;;;;;28.78;100.00;101371.75;5123882;27;51510;-46
2022/10/18 03:43:04;;;;;;;;;6.75;5.25;;;;;28.81;100.00;101367.91;5123880;27;51080;-50
2022/10/18 03:45:49;;;;;;;;;6.00;5.00;;;;;28.81;100.00;101371.53;5124105;27;51104;-53
2022/10/18 03:48:34;;;;;;;;;6.50;5.00;;;;;28.84;100.00;101376.78;5123658;27;51190;-49
2022/10/18 03:51:19;;;;;;;;;6.00;6.00;;;;;28.84;100.00;101365.84;5122873;27;51092;-53
2022/10/18 03:54:03;;;;;;;;;5.75;4.00;;;;;28.84;100.00;101371.31;5124279;27;51480;-50
2022/10/18 03:56:49;;;;;;;;;10.00;6.00;;;;;28.85;100.00;101370.31;5124063;27;51111;-51
2022/10/18 03:59:33;;;;;;;;;6.00;5.25;;;;;28.86;100.00;101376.66;5123536;27;51096;-50
2022/10/18 04:02:18;;;;;;;;;9.50;8.00;;;;;28.82;100.00;101365.06;5123487;27;51174;-49
2022/10/18 04:05:03;;;;;;;;;8.00;5.00;;;;;28.90;100.00;101373.59;5123901;27;51480;-54
2022/10/18 04:07:47;;;;;;;;;7.25;7.25;;;;;28.92;100.00;101379.84;5123666;27;51681;-52
2022/10/18 04:10:32;;;;;;;;;12.00;5.25;;;;;28.94;100.00;101374.28;5122824;27;51000;-52
2022/10/18 04:13:16;;;;;;;;;7.00;7.00;;;;;28.91;100.00;101371.75;5123433;27;51533;-51
2022/10/18 04:16:01;;;;;;;;;11.00;7.25;;;;;28.98;100.00;101377.66;5123469;27;51096;-51
2022/10/18 04:18:45;;;;;;;;;6.50;5.75;;;;;28.99;100.00;101376.69;5120619;27;51130;-51
2022/10/18 04:21:29;;;;;;;;;8.75;6.00;;;;;29.00;100.00;101383.88;5122318;27;51167;-51
2022/10/18 04:24:16;;;;;;;;;5.25;5.00;;;;;29.00;100.00;101379.31;5123191;27;51596;-50
2022/10/18 04:27:01;;;;;;;;;6.25;5.50;;;;;29.01;100.00;101380.16;5114507;27;51138;-50
2022/10/18 04:29:46;;;;;;;;;5.75;5.00;;;;;29.02;100.00;101381.91;5122048;27;51400;-50
2022/10/18 04:32:31;;;;;;;;;9.75;8.50;;;;;29.00;100.00;101390.25;5122688;27;51192;-50
2022/10/18 04:35:15;;;;;;;;;9.75;8.00;;;;;29.01;100.00;101391.13;5123070;27;51132;-52
2022/10/18 04:38:00;;;;;;;;;9.00;9.00;;;;;29.00;100.00;101392.09;5122409;27;51301;-50
2022/10/18 04:40:45;;;;;;;;;5.25;5.25;;;;;29.06;100.00;101398.03;5122391;27;51151;-46
2022/10/18 04:43:30;;;;;;;;;6.75;6.00;;;;;29.08;100.00;101403.41;5121151;27;51213;-48
2022/10/18 04:46:14;;;;;;;;;10.50;7.25;;;;;29.07;100.00;101413.47;5122732;27;51245;-48
2022/10/18 04:49:00;;;;;;;;;8.00;7.00;;;;;29.07;100.00;101410.75;5122165;27;51119;-51
2022/10/18 04:51:45;;;;;;;;;11.25;5.75;;;;;29.11;100.00;101408.66;5121088;27;51107;-48
2022/10/18 04:54:29;;;;;;;;;8.75;7.25;;;;;29.13;100.00;101414.91;5122438;27;52723;-52
2022/10/18 04:57:14;;;;;;;;;7.25;6.75;;;;;29.14;100.00;101404.84;5122131;27;51423;-49
2022/10/18 04:59:58;;;;;;;;;10.25;7.25;;;;;29.14;100.00;101407.59;5122460;27;51315;-50
2022/10/18 05:02:43;;;;;;;;;11.25;9.25;;;;;29.10;100.00;101403.28;5118847;27;51360;-47
2022/10/18 05:05:27;;;;;;;;;11.25;6.50;;;;;29.09;100.00;101410.66;5122176;27;51211;-47
2022/10/18 05:08:12;;;;;;;;;11.50;9.25;;;;;29.10;100.00;101414.25;5121787;27;51174;-48
2022/10/18 05:10:57;;;;;;;;;9.75;8.75;;;;;29.07;100.00;101418.97;5121929;27;51003;-50
2022/10/18 05:13:41;;;;;;;;;9.50;9.25;;;;;28.98;100.00;101396.84;5117252;27;51398;-50
2022/10/18 05:16:27;;;;;;;;;9.50;8.25;;;;;29.10;100.00;101411.53;5119238;27;51223;-50
2022/10/18 05:19:12;;;;;;;;;14.75;10.25;;;;;29.12;100.00;101421.38;5121744;27;51447;-51
2022/10/18 05:21:56;;;;;;;;;23.50;16.50;;;;;29.13;100.00;101422.25;5121017;27;51144;-49
2022/10/18 05:24:40;;;;;;;;;16.50;16.50;;;;;29.12;100.00;101418.63;5121982;27;51115;-51
2022/10/18 05:27:27;;;;;;;;;20.00;16.25;;;;;29.13;100.00;101416.78;5121264;27;51343;-50
2022/10/18 05:30:11;;;;;;;;;30.25;21.75;;;;;29.14;100.00;101419.41;5121396;27;51108;-52
2022/10/18 05:32:56;;;;;;;;;30.50;24.25;;;;;29.16;100.00;101417.44;5121295;27;51135;-49
2022/10/18 05:35:40;;;;;;;;;30.25;26.25;;;;;29.17;100.00;101423.78;5121630;27;51201;-50
2022/10/18 05:38:25;;;;;;;;;29.25;25.75;;;;;29.19;100.00;101435.50;5121212;27;51212;-51
2022/10/18 05:41:10;;;;;;;;;40.50;32.50;;;;;29.21;100.00;101433.53;5121256;27;51344;-50
2022/10/18 05:43:55;;;;;;;;;36.50;32.25;;;;;29.22;100.00;101441.66;5121305;27;51655;-52
2022/10/18 05:46:40;;;;;;;;;37.50;32.00;;;;;29.26;100.00;101436.81;5121207;27;51153;-50
2022/10/18 05:49:25;;;;;;;;;45.50;34.75;;;;;29.27;100.00;101452.28;5121187;27;51046;-48
2022/10/18 05:52:10;;;;;;;;;37.75;33.50;;;;;29.31;100.00;101450.22;5120842;27;51468;-53
2022/10/18 05:54:54;;;;;;;;;43.75;34.00;;;;;29.29;100.00;101450.31;5120898;27;51036;-48
2022/10/18 05:57:39;;;;;;;;;41.75;35.75;;;;;29.37;100.00;101458.03;5120224;27;51173;-50
2022/10/18 06:00:23;;;;;;;;;47.50;36.50;;;;;29.42;100.00;101464.03;5121373;27;51012;-50
2022/10/18 06:03:08;;;;;;;;;45.25;34.50;;;;;29.46;100.00;101457.34;5120586;27;51074;-47
2022/10/18 06:05:58;;;;;;;;;46.25;35.00;;;;;29.52;100.00;101453.28;5120966;27;51072;-48
2022/10/18 06:08:43;;;;;;;;;39.25;33.25;;;;;29.51;100.00;101446.94;5121143;27;51071;-47
2022/10/18 06:11:29;;;;;;;;;34.50;29.00;;;;;29.59;100.00;101449.09;5112558;27;51565;-49
2022/10/18 06:14:13;;;;;;;;;30.25;28.50;;;;;29.62;100.00;101448.88;5120960;27;51135;-50
2022/10/18 06:16:58;;;;;;;;;71.25;52.75;;;;;29.71;100.00;101465.63;5120578;27;51070;-49
2022/10/18 06:19:43;;;;;;;;;68.00;52.50;;;;;29.76;100.00;101471.69;5120633;27;51135;-50
2022/10/18 06:22:28;;;;;;;;;26.50;23.00;;;;;29.80;100.00;101465.84;5117238;27;51080;-50
2022/10/18 06:25:13;;;;;;;;;31.00;25.75;;;;;29.88;100.00;101469.88;5120877;27;51189;-43
2022/10/18 06:27:57;;;;;;;;;20.00;18.25;;;;;29.99;100.00;101476.38;5116245;27;51069;-44
2022/10/18 06:30:43;;;;;;;;;25.75;23.25;;;;;30.06;100.00;101474.03;5120305;27;51157;-43
2022/10/18 06:33:29;;;;;;;;;29.25;22.50;;;;;30.18;100.00;101483.22;5132527;27;51140;-43
2022/10/18 06:36:16;;;;;;;;;24.75;23.00;;;;;30.32;100.00;101487.66;5116512;27;51186;-43
2022/10/18 06:39:01;;;;;;;;;34.00;27.25;;;;;30.47;100.00;101491.09;5118725;27;51169;-44
2022/10/18 06:41:46;;;;;;;;;27.50;23.25;;;;;30.65;100.00;101494.34;5119055;27;51356;-45
2022/10/18 06:44:30;;;;;;;;;32.50;26.75;;;;;30.84;100.00;101495.66;5120577;27;51550;-43
2022/10/18 06:47:14;;;;;;;;;22.50;21.00;;;;;31.03;100.00;101497.84;5120348;27;51128;-44
2022/10/18 06:49:59;;;;;;;;;20.75;13.75;;;;;31.29;100.00;101511.41;5120932;27;51111;-43
2022/10/18 06:52:44;;;;;;;;;26.00;21.25;;;;;31.51;100.00;101513.31;5120387;27;51116;-45
2022/10/18 06:55:32;;;;;;;;;21.25;18.25;;;;;31.86;100.00;101512.31;5118945;27;51145;-43
2022/10/18 06:58:16;;;;;;;;;19.25;18.25;;;;;32.28;100.00;101509.78;5119245;27;51177;-43
2022/10/18 07:01:09;;;;;;;;;23.50;21.50;;;;;32.70;100.00;101516.44;5120588;27;51182;-44
2022/10/18 07:03:54;;;;;;;;;23.50;15.75;;;;;32.95;100.00;101515.22;5120596;27;51161;-43
2022/10/18 07:06:39;;;;;;;;;26.00;21.75;;;;;33.19;100.00;101517.69;5120343;27;51545;-44
2022/10/18 07:09:23;;;;;;;;;19.75;19.50;;;;;33.45;100.00;101516.41;5118287;27;51062;-43
2022/10/18 07:12:10;;;;;;;;;26.50;19.25;;;;;33.85;100.00;101518.34;5120218;27;51133;-43
2022/10/18 07:14:55;;;;;;;;;19.25;16.75;;;;;34.03;100.00;101528.72;5124715;27;51455;-44
2022/10/18 07:17:40;;;;;;;;;12.50;11.25;;;;;34.40;100.00;101525.38;5124016;27;52257;-44
2022/10/18 07:20:25;;;;;;;;;10.50;9.00;;;;;35.53;100.00;101523.00;5121675;27;51118;-42
2022/10/18 07:23:10;;;;;;;;;16.25;13.75;;;;;36.22;100.00;101518.00;5121872;27;51506;-45
2022/10/18 07:25:55;;;;;;;;;13.75;11.00;;;;;37.24;100.00;101516.91;5115601;27;51077;-45
2022/10/18 07:28:39;;;;;;;;;15.75;14.00;;;;;38.32;100.00;101516.38;5120594;27;51475;-44
2022/10/18 07:31:25;;;;;;;;;13.75;10.50;;;;;38.70;100.00;101504.81;5123386;27;51457;-45
2022/10/18 07:34:11;;;;;;;;;18.25;15.25;;;;;39.03;100.00;101507.63;5121769;27;51421;-45
2022/10/18 07:36:55;;;;;;;;;11.75;8.50;;;;;39.40;100.00;101513.69;5121333;27;51090;-44
2022/10/18 07:39:40;;;;;;;;;9.25;8.00;;;;;38.95;100.00;101508.50;5124366;27;51137;-45
2022/10/18 07:42:25;;;;;;;;;12.25;10.50;;;;;39.70;100.00;101520.38;5116373;27;51220;-44
2022/10/18 07:45:11;;;;;;;;;11.25;10.75;;;;;41.25;100.00;101510.31;5122686;27;51074;-43
2022/10/18 07:47:56;;;;;;;;;11.75;9.25;;;;;41.63;100.00;101515.00;5119680;27;51338;-43
2022/10/18 07:50:41;;;;;;;;;13.00;9.75;;;;;40.44;100.00;101519.16;5118419;27;51042;-43
2022/10/18 07:53:26;;;;;;;;;10.25;10.00;;;;;39.37;100.00;101517.69;5121588;27;51113;-44
2022/10/18 07:56:19;;;;;;;;;12.25;9.25;;;;;38.33;100.00;101526.47;5113264;27;51385;-43
2022/10/18 07:59:04;;;;;;;;;10.00;8.50;;;;;37.22;100.00;101529.03;5119776;27;51415;-42
2022/10/18 08:01:48;;;;;;;;;11.75;8.00;;;;;36.30;100.00;101525.53;5120859;27;51156;-44
2022/10/18 08:04:32;;;;;;;;;10.00;8.25;;;;;35.64;100.00;101533.88;5122241;27;51165;-43
2022/10/18 08:07:17;;;;;;;;;8.25;7.25;;;;;35.19;100.00;101540.09;5121312;27;51398;-44
2022/10/18 08:10:02;;;;;;;;;11.00;8.00;;;;;35.14;100.00;101536.88;5121142;27;51204;-43
2022/10/18 08:12:48;;;;;;;;;10.75;8.75;;;;;35.27;100.00;101550.41;5120524;27;51216;-44
2022/10/18 08:15:32;;;;;;;;;11.75;10.25;;;;;35.99;100.00;101548.03;5121529;27;51117;-44
2022/10/18 08:18:17;;;;;;;;;11.00;8.00;;;;;37.02;100.00;101555.25;5122513;27;51118;-43
2022/10/18 08:21:03;;;;;;;;;13.25;10.00;;;;;37.62;100.00;101557.22;5121299;27;51533;-44
2022/10/18 08:23:48;;;;;;;;;14.50;10.50;;;;;37.93;100.00;101539.19;5122167;27;51615;-44
2022/10/18 08:26:33;;;;;;;;;11.25;9.75;;;;;38.21;100.00;101538.94;5122269;27;51181;-45
2022/10/18 08:29:17;;;;;;;;;9.00;7.75;;;;;38.33;100.00;101537.59;5120024;27;51248;-45
2022/10/18 08:32:04;;;;;;;;;11.25;8.50;;;;;38.43;100.00;101532.78;5115887;27;52090;-44
2022/10/18 08:34:49;;;;;;;;;11.00;9.00;;;;;38.55;100.00;101540.78;5103942;27;51165;-44
2022/10/18 08:37:34;;;;;;;;;9.25;7.50;;;;;38.50;100.00;101549.66;5122317;27;51396;-46
2022/10/18 08:40:20;;;;;;;;;10.75;9.25;;;;;38.57;100.00;101547.91;5121637;27;52419;-44
2022/10/18 08:43:32;;;;;;;;;8.75;8.75;;;;;38.67;100.00;101550.53;5117525;27;51289;-42
2022/10/18 08:46:18;;;;;;;;;10.00;9.50;;;;;38.74;100.00;101548.81;5097635;27;51208;-43
2022/10/18 08:49:03;;;;;;;;;8.25;8.25;;;;;38.92;100.00;101546.94;5114223;27;51395;-44
2022/10/18 08:51:50;;;;;;;;;10.25;7.75;;;;;38.83;100.00;101544.16;5119745;27;51228;-44
2022/10/18 08:54:53;;;;;;;;;12.25;8.25;;;;;38.89;100.00;101559.28;5112633;27;51195;-43
2022/10/18 08:57:38;;;;;;;;;7.50;6.75;;;;;38.95;100.00;101554.94;5119424;27;51370;-48
2022/10/18 09:00:24;;;;;;;;;6.75;5.50;;;;;38.94;100.00;101551.31;5121108;27;51188;-44
2022/10/18 09:03:25;;;;;;;;;1.75;1.75;;;;;38.79;100.00;101555.78;5119970;27;51158;-45
2022/10/18 09:06:24;;;;;;;;;14.75;6.50;;;;;38.57;100.00;101561.81;5119841;27;51247;-45
2022/10/18 09:09:24;;;;;;;;;7.00;4.75;;;;;38.33;100.00;101564.53;5133895;27;51331;-43
2022/10/18 09:12:29;;;;;;;;;6.00;4.75;;;;;38.11;100.00;101564.97;5119899;27;51528;-44
2022/10/18 09:15:33;;;;;;;;;5.50;4.00;;;;;37.92;100.00;101566.13;5122064;27;51392;-43
2022/10/18 09:18:36;;;;;;;;;7.00;4.00;;;;;37.88;100.00;101563.84;5121932;27;51187;-44
2022/10/18 09:21:46;;;;;;;;;7.50;5.25;;;;;37.82;100.00;101562.56;5122292;27;51144;-43
2022/10/18 09:24:37;;;;;;;;;6.00;4.50;;;;;37.77;100.00;101557.50;5121118;27;51077;-44
2022/10/18 09:27:32;;;;;;;;;6.50;4.50;;;;;37.61;100.00;101551.84;5119180;27;51320;-43
2022/10/18 09:30:51;;;;;;;;;4.50;4.00;;;;;37.45;100.00;101550.72;5120431;27;51407;-45
2022/10/18 09:34:02;;;;;;;;;6.00;3.75;;;;;37.31;100.00;101557.69;5120217;27;51085;-43
2022/10/18 09:36:50;;;;;;;;;4.75;2.75;;;;;37.24;100.00;101551.06;5119902;27;51175;-43
2022/10/18 09:39:37;;;;;;;;;5.00;4.25;;;;;37.01;100.00;101554.34;5118267;27;51183;-44
2022/10/18 09:42:29;;;;;;;;;7.00;5.75;;;;;36.84;100.00;101547.75;5120043;27;51288;-43
2022/10/18 09:45:26;;;;;;;;;4.75;4.75;;;;;36.79;100.00;101550.16;5119272;27;51195;-44
2022/10/18 09:48:19;;;;;;;;;6.00;6.00;;;;;36.81;100.00;101559.19;5117599;27;51184;-45
2022/10/18 09:51:11;;;;;;;;;6.00;5.00;;;;;36.85;100.00;101548.63;5119762;27;51723;-43
2022/10/18 09:54:10;;;;;;;;;4.25;4.25;;;;;36.86;100.00;101554.00;5118010;27;51155;-45
2022/10/18 09:56:59;;;;;;;;;3.00;1.00;;;;;36.75;100.00;101540.41;5116593;27;51179;-43
2022/10/18 09:59:49;;;;;;;;;5.50;5.00;;;;;36.67;100.00;101552.28;5118895;27;51107;-44
2022/10/18 10:02:33;;;;;;;;;5.00;3.00;;;;;36.58;100.00;101554.09;5120003;27;51501;-42
2022/10/18 10:05:18;;;;;;;;;7.75;5.00;;;;;36.59;100.00;101538.34;5116780;27;51508;-43
2022/10/18 10:08:03;;;;;;;;;7.75;5.00;;;;;36.69;100.00;101533.59;5119878;27;51243;-43
2022/10/18 10:10:48;;;;;;;;;4.75;4.75;;;;;36.74;100.00;101527.56;5120758;27;51167;-44
2022/10/18 10:13:32;;;;;;;;;5.75;5.75;;;;;36.63;100.00;101516.72;5121107;27;51141;-43
2022/10/18 10:16:18;;;;;;;;;4.25;4.25;;;;;36.52;100.00;101510.38;5120558;27;51052;-43
2022/10/18 10:19:02;;;;;;;;;6.75;4.25;;;;;36.47;100.00;101496.13;5076238;27;51290;-44
2022/10/18 10:21:49;;;;;;;;;10.00;5.50;;;;;36.49;100.00;101491.31;5114249;27;51326;-43
2022/10/18 10:24:45;;;;;;;;;8.50;7.50;;;;;36.44;100.00;101496.44;5120316;27;51135;-43
2022/10/18 10:27:32;;;;;;;;;8.00;5.00;;;;;36.47;100.00;101496.13;5120276;27;51184;-43
2022/10/18 10:30:26;;;;;;;;;5.25;5.00;;;;;36.49;100.00;101496.84;5120561;27;51537;-44
2022/10/18 10:33:29;;;;;;;;;9.75;9.75;;;;;36.50;100.00;101490.28;5119357;27;51307;-44
2022/10/18 10:36:19;;;;;;;;;2.25;2.25;;;;;36.42;100.00;101492.94;5118090;27;51057;-44
2022/10/18 10:39:18;;;;;;;;;8.75;6.50;;;;;36.36;100.00;101486.09;5120838;27;51268;-42
2022/10/18 10:42:03;;;;;;;;;7.25;5.75;;;;;36.36;100.00;101483.34;5117507;27;51326;-43
2022/10/18 10:44:53;;;;;;;;;5.50;4.75;;;;;36.29;100.00;101480.34;5120214;27;51147;-44
2022/10/18 10:47:38;;;;;;;;;5.75;4.75;;;;;36.20;100.00;101467.41;5110135;27;51106;-45
2022/10/18 10:50:27;;;;;;;;;7.25;4.50;;;;;36.07;100.00;101469.72;5121445;27;51263;-43
2022/10/18 10:53:58;;;;;;;;;7.25;6.00;;;;;36.02;100.00;101469.31;5123710;27;51153;-44
2022/10/18 10:57:07;;;;;;;;;5.25;5.25;;;;;35.97;100.00;101461.47;5122119;27;51486;-45
2022/10/18 10:59:54;;;;;;;;;9.50;5.00;;;;;35.94;100.00;101461.75;5122420;27;51239;-44
2022/10/18 11:02:39;;;;;;;;;5.00;5.00;;;;;35.90;100.00;101460.31;5123350;27;51109;-43
2022/10/18 11:05:28;;;;;;;;;5.00;4.00;;;;;35.78;100.00;101445.78;5120917;27;51109;-43
2022/10/18 11:08:17;;;;;;;;;4.00;3.50;;;;;35.76;100.00;101443.19;5124114;27;51090;-45
2022/10/18 11:11:27;;;;;;;;;8.00;5.00;;;;;35.68;100.00;101443.97;5123473;27;51133;-43
2022/10/18 11:14:24;;;;;;;;;7.25;7.00;;;;;35.60;100.00;101438.31;5124096;27;51169;-42
2022/10/18 11:17:33;;;;;;;;;8.25;7.00;;;;;35.63;100.00;101442.69;5123451;27;51012;-44
2022/10/18 11:20:44;;;;;;;;;4.00;4.00;;;;;35.61;100.00;101440.06;5122636;27;51013;-42
2022/10/18 11:23:35;;;;;;;;;6.00;5.75;;;;;35.55;100.00;101431.50;5123845;27;51236;-44
2022/10/18 11:27:02;;;;;;;;;5.25;5.25;;;;;35.47;100.00;101421.19;5122134;27;51231;-43
2022/10/18 11:30:12;;;;;;;;;4.75;4.50;;;;;35.43;100.00;101417.88;5088370;27;51153;-45
2022/10/18 11:32:59;;;;;;;;;4.75;2.75;;;;;35.27;100.00;101415.72;5123676;27;51347;-45
2022/10/18 11:36:07;;;;;;;;;2.50;2.50;;;;;35.18;100.00;101412.00;5121979;27;51392;-42
2022/10/18 11:39:02;;;;;;;;;5.75;5.75;;;;;35.21;100.00;101414.44;5123670;27;51110;-44
2022/10/18 11:41:54;;;;;;;;;6.50;4.25;;;;;35.17;100.00;101406.59;5122070;27;51508;-45
2022/10/18 11:44:59;;;;;;;;;5.50;5.00;;;;;35.09;100.00;101401.81;5115860;27;51083;-43
2022/10/18 11:47:48;;;;;;;;;9.25;6.50;;;;;35.12;100.00;101400.66;5119605;27;51103;-44
2022/10/18 11:50:58;;;;;;;;;11.50;4.50;;;;;35.10;100.00;101399.94;5105553;27;51288;-43
2022/10/18 11:54:13;;;;;;;;;9.00;5.75;;;;;35.05;100.00;101392.09;5120394;27;51132;-43
2022/10/18 11:57:15;;;;;;;;;8.00;6.00;;;;;34.85;100.00;101388.47;5115939;27;51117;-43
2022/10/18 12:00:08;;;;;;;;;6.00;4.50;;;;;34.72;100.00;101384.13;5120481;27;51456;-43
2022/10/18 12:03:13;;;;;;;;;6.75;5.00;;;;;34.64;100.00;101381.25;5118209;27;51422;-44
2022/10/18 12:06:05;;;;;;;;;8.25;4.00;;;;;34.45;100.00;101371.09;5122926;27;51144;-46
2022/10/18 12:08:58;;;;;;;;;5.00;5.00;;;;;34.32;100.00;101360.31;5119986;27;51296;-43
2022/10/18 12:11:51;;;;;;;;;5.75;4.00;;;;;34.22;100.00;101357.59;5122625;27;51208;-42
2022/10/18 12:14:41;;;;;;;;;7.25;4.75;;;;;34.16;100.00;101362.81;5119201;27;51113;-42
2022/10/18 12:17:40;;;;;;;;;8.00;2.75;;;;;34.15;100.00;101353.63;5119799;27;51100;-42
2022/10/18 12:20:34;;;;;;;;;4.75;3.50;;;;;34.15;100.00;101353.63;5122861;27;51197;-43
2022/10/18 12:23:42;;;;;;;;;3.25;3.25;;;;;34.32;100.00;101356.69;5122475;27;51264;-44
2022/10/18 12:26:28;;;;;;;;;4.00;4.00;;;;;34.41;100.00;101348.41;5122427;27;51069;-44
2022/10/18 12:29:16;;;;;;;;;4.50;4.00;;;;;34.41;100.00;101336.50;5120085;27;51223;-42
2022/10/18 12:32:14;;;;;;;;;5.25;3.50;;;;;34.26;100.00;101336.06;5119894;27;51117;-43
2022/10/18 12:35:06;;;;;;;;;6.75;4.00;;;;;34.10;100.00;101331.97;5118248;27;51261;-45
2022/10/18 12:38:17;;;;;;;;;9.00;4.75;;;;;34.11;100.00;101330.97;5117349;27;51564;-44
2022/10/18 12:41:02;;;;;;;;;5.75;4.50;;;;;34.06;100.00;101321.38;5120094;27;51159;-42
2022/10/18 12:43:52;;;;;;;;;6.00;4.50;;;;;33.93;100.00;101318.91;5121215;27;51164;-44
2022/10/18 12:46:45;;;;;;;;;4.50;3.00;;;;;33.80;100.00;101319.19;5106881;27;51607;-43
2022/10/18 12:49:37;;;;;;;;;9.50;5.00;;;;;33.73;100.00;101327.16;5106601;27;51129;-42
2022/10/18 12:52:26;;;;;;;;;12.00;5.50;;;;;33.61;100.00;101304.31;5114315;27;51469;-43